sensor_id;sensor_type;location;lat;lon;timestamp;pressure;altitude;pressure_sealevel;temperature;humidity
39209;BME280;24929;51.982;4.664;2023-02-18T00:01:02;77478.97;;;-143.36;nan
39209;BME280;24929;51.982;4.664;2023-02-18T00:03:29;77474.97;;;-143.36;nan
39209;BME280;24929;51.982;4.664;2023-02-18T00:05:54;77468.94;;;-143.36;nan
39209;BME280;24929;51.982;4.664;2023-02-18T00:08:20;77478.97;;;-143.36;nan
39209;BME280;24929;51.982;4.664;2023-02-18T00:10:46;77497.06;;;-143.36;nan
39209;BME280;24929;51.982;4.664;2023-02-18T00:13:12;77513.09;;;-143.36;nan
39209;BME280;24929;51.982;4.664;2023-02-18T00:15:38;77515.13;;;-143.36;nan
39209;BME280;24929;51.982;4.664;2023-02-18T00:18:04;77495.03;;;-143.36;nan
39209;BME280;24929;51.982;4.664;2023-02-18T00:20:30;77525.16;;;-143.36;nan
39209;BME280;24929;51.982;4.664;2023-02-18T00:22:58;77545.22;;;-143.36;nan
39209;BME280;24929;51.982;4.664;2023-02-18T00:25:23;77537.19;;;-143.36;nan
39209;BME280;24929;51.982;4.664;2023-02-18T00:27:48;77511.09;;;-143.36;nan
39209;BME280;24929;51.982;4.664;2023-02-18T00:30:14;77545.22;;;-143.36;nan
39209;BME280;24929;51.982;4.664;2023-02-18T00:32:39;77543.22;;;-143.36;nan
39209;BME280;24929;51.982;4.664;2023-02-18T00:35:05;77561.28;;;-143.36;nan
39209;BME280;24929;51.982;4.664;2023-02-18T00:37:30;77499.06;;;-143.36;nan
39209;BME280;24929;51.982;4.664;2023-02-18T00:39:55;77483.00;;;-143.36;nan
39209;BME280;24929;51.982;4.664;2023-02-18T00:42:21;77485.00;;;-143.36;nan
39209;BME280;24929;51.982;4.664;2023-02-18T00:44:46;77483.00;;;-143.36;nan
39209;BME280;24929;51.982;4.664;2023-02-18T00:47:11;77478.97;;;-143.36;nan
39209;BME280;24929;51.982;4.664;2023-02-18T00:49:37;77525.16;;;-143.36;nan
39209;BME280;24929;51.982;4.664;2023-02-18T00:52:03;77533.19;;;-143.36;nan
39209;BME280;24929;51.982;4.664;2023-02-18T00:54:28;77537.19;;;-143.36;nan
39209;BME280;24929;51.982;4.664;2023-02-18T00:56:53;77547.22;;;-143.36;nan
39209;BME280;24929;51.982;4.664;2023-02-18T00:59:19;77511.09;;;-143.36;nan
39209;BME280;24929;51.982;4.664;2023-02-18T01:01:44;77499.06;;;-143.36;nan
39209;BME280;24929;51.982;4.664;2023-02-18T01:04:10;77503.06;;;-143.36;nan
39209;BME280;24929;51.982;4.664;2023-02-18T01:06:35;77497.06;;;-143.36;nan
39209;BME280;24929;51.982;4.664;2023-02-18T01:09:00;77519.13;;;-143.36;nan
39209;BME280;24929;51.982;4.664;2023-02-18T01:11:26;77499.06;;;-143.36;nan
39209;BME280;24929;51.982;4.664;2023-02-18T01:13:51;77491.03;;;-143.36;nan
39209;BME280;24929;51.982;4.664;2023-02-18T01:16:17;77446.88;;;-143.36;nan
39209;BME280;24929;51.982;4.664;2023-02-18T01:18:43;77462.94;;;-143.36;nan
39209;BME280;24929;51.982;4.664;2023-02-18T01:21:09;77448.88;;;-143.36;nan
39209;BME280;24929;51.982;4.664;2023-02-18T01:23:36;77420.78;;;-143.36;nan
39209;BME280;24929;51.982;4.664;2023-02-18T01:26:02;77468.94;;;-143.36;nan
39209;BME280;24929;51.982;4.664;2023-02-18T01:28:27;77446.88;;;-143.36;nan
39209;BME280;24929;51.982;4.664;2023-02-18T01:30:53;77452.88;;;-143.36;nan
39209;BME280;24929;51.982;4.664;2023-02-18T01:33:19;77438.84;;;-143.36;nan
39209;BME280;24929;51.982;4.664;2023-02-18T01:35:45;77460.91;;;-143.36;nan
39209;BME280;24929;51.982;4.664;2023-02-18T01:38:10;77426.78;;;-143.36;nan
39209;BME280;24929;51.982;4.664;2023-02-18T01:40:42;77428.81;;;-143.36;nan
39209;BME280;24929;51.982;4.664;2023-02-18T01:43:10;77402.72;;;-143.36;nan
39209;BME280;24929;51.982;4.664;2023-02-18T01:48:14;77366.59;;;-143.36;nan
39209;BME280;24929;51.982;4.664;2023-02-18T01:50:48;77364.56;;;-143.36;nan
39209;BME280;24929;51.982;4.664;2023-02-18T01:53:16;77388.66;;;-143.36;nan
39209;BME280;24929;51.982;4.664;2023-02-18T01:55:43;77384.66;;;-143.36;nan
39209;BME280;24929;51.982;4.664;2023-02-18T01:58:10;77368.59;;;-143.36;nan
39209;BME280;24929;51.982;4.664;2023-02-18T02:00:36;77378.63;;;-143.36;nan
39209;BME280;24929;51.982;4.664;2023-02-18T02:03:02;77398.69;;;-143.36;nan
39209;BME280;24929;51.982;4.664;2023-02-18T02:05:31;77340.50;;;-143.36;nan
39209;BME280;24929;51.982;4.664;2023-02-18T02:07:57;77370.59;;;-143.36;nan
39209;BME280;24929;51.982;4.664;2023-02-18T02:10:28;77342.50;;;-143.36;nan
39209;BME280;24929;51.982;4.664;2023-02-18T02:15:38;77344.50;;;-143.36;nan
39209;BME280;24929;51.982;4.664;2023-02-18T02:24:17;77232.09;;;-143.36;nan
39209;BME280;24929;51.982;4.664;2023-02-18T02:27:11;77232.09;;;-143.36;nan
39209;BME280;24929;51.982;4.664;2023-02-18T02:35:30;77258.19;;;-143.36;nan
39209;BME280;24929;51.982;4.664;2023-02-18T02:43:52;77220.06;;;-143.36;nan
39209;BME280;24929;51.982;4.664;2023-02-18T02:46:30;77224.06;;;-143.36;nan
39209;BME280;24929;51.982;4.664;2023-02-18T02:51:34;77252.19;;;-143.36;nan
39209;BME280;24929;51.982;4.664;2023-02-18T02:54:19;77246.16;;;-143.36;nan
39209;BME280;24929;51.982;4.664;2023-02-18T02:56:45;77302.34;;;-143.36;nan
39209;BME280;24929;51.982;4.664;2023-02-18T02:59:15;77248.16;;;-143.36;nan
39209;BME280;24929;51.982;4.664;2023-02-18T03:12:52;77250.16;;;-143.36;nan
39209;BME280;24929;51.982;4.664;2023-02-18T03:18:54;77258.19;;;-143.36;nan
39209;BME280;24929;51.982;4.664;2023-02-18T03:21:05;77256.19;;;-143.36;nan
39209;BME280;24929;51.982;4.664;2023-02-18T03:23:37;77282.28;;;-143.36;nan
39209;BME280;24929;51.982;4.664;2023-02-18T03:26:04;77260.22;;;-143.36;nan
39209;BME280;24929;51.982;4.664;2023-02-18T03:28:30;77288.31;;;-143.36;nan
39209;BME280;24929;51.982;4.664;2023-02-18T03:31:04;77228.09;;;-143.36;nan
39209;BME280;24929;51.982;4.664;2023-02-18T03:33:56;77234.13;;;-143.36;nan
39209;BME280;24929;51.982;4.664;2023-02-18T03:36:24;77260.22;;;-143.36;nan
39209;BME280;24929;51.982;4.664;2023-02-18T03:38:55;77208.03;;;-143.36;nan
39209;BME280;24929;51.982;4.664;2023-02-18T03:41:23;77214.03;;;-143.36;nan
39209;BME280;24929;51.982;4.664;2023-02-18T03:43:59;77238.13;;;-143.36;nan
39209;BME280;24929;51.982;4.664;2023-02-18T03:46:26;77270.25;;;-143.36;nan
39209;BME280;24929;51.982;4.664;2023-02-18T03:48:52;77282.28;;;-143.36;nan
39209;BME280;24929;51.982;4.664;2023-02-18T03:51:18;77242.16;;;-143.36;nan
39209;BME280;24929;51.982;4.664;2023-02-18T03:53:44;77260.22;;;-143.36;nan
39209;BME280;24929;51.982;4.664;2023-02-18T03:56:10;77278.28;;;-143.36;nan
39209;BME280;24929;51.982;4.664;2023-02-18T03:58:36;77282.28;;;-143.36;nan
39209;BME280;24929;51.982;4.664;2023-02-18T04:01:02;77272.25;;;-143.36;nan
39209;BME280;24929;51.982;4.664;2023-02-18T04:03:28;77282.28;;;-143.36;nan
39209;BME280;24929;51.982;4.664;2023-02-18T04:05:53;77270.25;;;-143.36;nan
39209;BME280;24929;51.982;4.664;2023-02-18T04:08:19;77268.25;;;-143.36;nan
39209;BME280;24929;51.982;4.664;2023-02-18T04:10:44;77286.31;;;-143.36;nan
39209;BME280;24929;51.982;4.664;2023-02-18T04:13:09;77254.19;;;-143.36;nan
39209;BME280;24929;51.982;4.664;2023-02-18T04:15:35;77256.19;;;-143.36;nan
39209;BME280;24929;51.982;4.664;2023-02-18T04:18:01;77250.16;;;-143.36;nan
39209;BME280;24929;51.982;4.664;2023-02-18T04:20:27;77236.13;;;-143.36;nan
39209;BME280;24929;51.982;4.664;2023-02-18T04:22:52;77232.09;;;-143.36;nan
39209;BME280;24929;51.982;4.664;2023-02-18T04:25:17;77224.06;;;-143.36;nan
39209;BME280;24929;51.982;4.664;2023-02-18T04:27:43;77212.03;;;-143.36;nan
39209;BME280;24929;51.982;4.664;2023-02-18T04:30:08;77252.19;;;-143.36;nan
39209;BME280;24929;51.982;4.664;2023-02-18T04:32:34;77240.13;;;-143.36;nan
39209;BME280;24929;51.982;4.664;2023-02-18T04:34:59;77230.09;;;-143.36;nan
39209;BME280;24929;51.982;4.664;2023-02-18T04:37:25;77250.16;;;-143.36;nan
39209;BME280;24929;51.982;4.664;2023-02-18T04:39:50;77252.19;;;-143.36;nan
39209;BME280;24929;51.982;4.664;2023-02-18T04:42:16;77220.06;;;-143.36;nan
39209;BME280;24929;51.982;4.664;2023-02-18T04:44:41;77226.09;;;-143.36;nan
39209;BME280;24929;51.982;4.664;2023-02-18T04:47:06;77252.19;;;-143.36;nan
39209;BME280;24929;51.982;4.664;2023-02-18T04:49:32;77200.00;;;-143.36;nan
39209;BME280;24929;51.982;4.664;2023-02-18T04:51:57;77240.13;;;-143.36;nan
39209;BME280;24929;51.982;4.664;2023-02-18T04:54:23;77206.00;;;-143.36;nan
39209;BME280;24929;51.982;4.664;2023-02-18T04:56:48;77224.06;;;-143.36;nan
39209;BME280;24929;51.982;4.664;2023-02-18T04:59:14;77228.09;;;-143.36;nan
39209;BME280;24929;51.982;4.664;2023-02-18T05:01:40;77218.06;;;-143.36;nan
39209;BME280;24929;51.982;4.664;2023-02-18T05:04:05;77183.94;;;-143.36;nan
39209;BME280;24929;51.982;4.664;2023-02-18T05:06:31;77181.94;;;-143.36;nan
39209;BME280;24929;51.982;4.664;2023-02-18T05:08:56;77214.03;;;-143.36;nan
39209;BME280;24929;51.982;4.664;2023-02-18T05:11:21;77187.94;;;-143.36;nan
39209;BME280;24929;51.982;4.664;2023-02-18T05:13:47;77208.03;;;-143.36;nan
39209;BME280;24929;51.982;4.664;2023-02-18T05:16:12;77185.94;;;-143.36;nan
39209;BME280;24929;51.982;4.664;2023-02-18T05:18:38;77206.00;;;-143.36;nan
39209;BME280;24929;51.982;4.664;2023-02-18T05:21:04;77179.94;;;-143.36;nan
39209;BME280;24929;51.982;4.664;2023-02-18T05:23:29;77228.09;;;-143.36;nan
39209;BME280;24929;51.982;4.664;2023-02-18T05:25:54;77208.03;;;-143.36;nan
39209;BME280;24929;51.982;4.664;2023-02-18T05:28:20;77238.13;;;-143.36;nan
39209;BME280;24929;51.982;4.664;2023-02-18T05:30:45;77204.00;;;-143.36;nan
39209;BME280;24929;51.982;4.664;2023-02-18T05:33:10;77185.94;;;-143.36;nan
39209;BME280;24929;51.982;4.664;2023-02-18T05:35:37;77204.00;;;-143.36;nan
39209;BME280;24929;51.982;4.664;2023-02-18T05:38:02;77171.91;;;-143.36;nan
39209;BME280;24929;51.982;4.664;2023-02-18T05:40:28;77187.94;;;-143.36;nan
39209;BME280;24929;51.982;4.664;2023-02-18T05:42:53;77175.91;;;-143.36;nan
39209;BME280;24929;51.982;4.664;2023-02-18T05:45:19;77175.91;;;-143.36;nan
39209;BME280;24929;51.982;4.664;2023-02-18T05:47:44;77161.84;;;-143.36;nan
39209;BME280;24929;51.982;4.664;2023-02-18T05:50:09;77137.78;;;-143.36;nan
39209;BME280;24929;51.982;4.664;2023-02-18T05:52:35;77151.81;;;-143.36;nan
39209;BME280;24929;51.982;4.664;2023-02-18T05:55:00;77143.78;;;-143.36;nan
39209;BME280;24929;51.982;4.664;2023-02-18T05:57:26;77129.75;;;-143.36;nan
39209;BME280;24929;51.982;4.664;2023-02-18T05:59:51;77145.81;;;-143.36;nan
39209;BME280;24929;51.982;4.664;2023-02-18T06:02:16;77179.94;;;-143.36;nan
39209;BME280;24929;51.982;4.664;2023-02-18T06:04:42;77163.88;;;-143.36;nan
39209;BME280;24929;51.982;4.664;2023-02-18T06:07:07;77131.75;;;-143.36;nan
39209;BME280;24929;51.982;4.664;2023-02-18T06:09:34;77153.84;;;-143.36;nan
39209;BME280;24929;51.982;4.664;2023-02-18T06:11:59;77141.78;;;-143.36;nan
39209;BME280;24929;51.982;4.664;2023-02-18T06:14:25;77141.78;;;-143.36;nan
39209;BME280;24929;51.982;4.664;2023-02-18T06:16:50;77167.88;;;-143.36;nan
39209;BME280;24929;51.982;4.664;2023-02-18T06:19:15;77185.94;;;-143.36;nan
39209;BME280;24929;51.982;4.664;2023-02-18T06:21:41;77183.94;;;-143.36;nan
39209;BME280;24929;51.982;4.664;2023-02-18T06:24:06;77173.91;;;-143.36;nan
39209;BME280;24929;51.982;4.664;2023-02-18T06:26:32;77149.81;;;-143.36;nan
39209;BME280;24929;51.982;4.664;2023-02-18T06:28:58;77149.81;;;-143.36;nan
39209;BME280;24929;51.982;4.664;2023-02-18T06:31:23;77137.78;;;-143.36;nan
39209;BME280;24929;51.982;4.664;2023-02-18T06:33:49;77147.81;;;-143.36;nan
39209;BME280;24929;51.982;4.664;2023-02-18T06:36:14;77147.81;;;-143.36;nan
39209;BME280;24929;51.982;4.664;2023-02-18T06:38:42;77119.72;;;-143.36;nan
39209;BME280;24929;51.982;4.664;2023-02-18T06:41:08;77141.78;;;-143.36;nan
39209;BME280;24929;51.982;4.664;2023-02-18T06:43:34;77202.00;;;-143.36;nan
39209;BME280;24929;51.982;4.664;2023-02-18T06:46:01;77177.91;;;-143.36;nan
39209;BME280;24929;51.982;4.664;2023-02-18T06:52:09;77206.00;;;-143.36;nan
39209;BME280;24929;51.982;4.664;2023-02-18T06:54:34;77187.94;;;-143.36;nan
39209;BME280;24929;51.982;4.664;2023-02-18T06:57:00;77181.94;;;-143.36;nan
39209;BME280;24929;51.982;4.664;2023-02-18T07:06:15;77254.19;;;-143.36;nan
39209;BME280;24929;51.982;4.664;2023-02-18T07:08:41;77260.22;;;-143.36;nan
39209;BME280;24929;51.982;4.664;2023-02-18T07:11:06;77250.16;;;-143.36;nan
39209;BME280;24929;51.982;4.664;2023-02-18T07:13:32;77288.31;;;-143.36;nan
39209;BME280;24929;51.982;4.664;2023-02-18T07:15:57;77272.25;;;-143.36;nan
39209;BME280;24929;51.982;4.664;2023-02-18T07:18:22;77254.19;;;-143.36;nan
39209;BME280;24929;51.982;4.664;2023-02-18T07:20:48;77258.19;;;-143.36;nan
39209;BME280;24929;51.982;4.664;2023-02-18T07:23:13;77292.31;;;-143.36;nan
39209;BME280;24929;51.982;4.664;2023-02-18T07:25:38;77282.28;;;-143.36;nan
39209;BME280;24929;51.982;4.664;2023-02-18T07:28:05;77260.22;;;-143.36;nan
39209;BME280;24929;51.982;4.664;2023-02-18T07:33:52;77228.09;;;-143.36;nan
39209;BME280;24929;51.982;4.664;2023-02-18T07:36:17;77292.31;;;-143.36;nan
39209;BME280;24929;51.982;4.664;2023-02-18T07:38:43;77272.25;;;-143.36;nan
39209;BME280;24929;51.982;4.664;2023-02-18T07:41:17;77218.06;;;-143.36;nan
39209;BME280;24929;51.982;4.664;2023-02-18T07:43:44;77181.94;;;-143.36;nan
39209;BME280;24929;51.982;4.664;2023-02-18T07:46:09;77236.13;;;-143.36;nan
39209;BME280;24929;51.982;4.664;2023-02-18T07:48:35;77234.13;;;-143.36;nan
39209;BME280;24929;51.982;4.664;2023-02-18T07:51:04;77232.09;;;-143.36;nan
39209;BME280;24929;51.982;4.664;2023-02-18T07:53:30;77274.25;;;-143.36;nan
39209;BME280;24929;51.982;4.664;2023-02-18T07:55:57;77236.13;;;-143.36;nan
39209;BME280;24929;51.982;4.664;2023-02-18T07:58:26;77212.03;;;-143.36;nan
39209;BME280;24929;51.982;4.664;2023-02-18T08:00:52;77238.13;;;-143.36;nan
39209;BME280;24929;51.982;4.664;2023-02-18T08:03:19;77198.00;;;-143.36;nan
39209;BME280;24929;51.982;4.664;2023-02-18T08:05:49;77195.97;;;-143.36;nan
39209;BME280;24929;51.982;4.664;2023-02-18T08:08:26;77198.00;;;-143.36;nan
39209;BME280;24929;51.982;4.664;2023-02-18T08:10:53;77240.13;;;-143.36;nan
39209;BME280;24929;51.982;4.664;2023-02-18T08:13:19;77272.25;;;-143.36;nan
39209;BME280;24929;51.982;4.664;2023-02-18T08:15:44;77278.28;;;-143.36;nan
39209;BME280;24929;51.982;4.664;2023-02-18T08:18:18;77206.00;;;-143.36;nan
39209;BME280;24929;51.982;4.664;2023-02-18T08:20:45;77242.16;;;-143.36;nan
39209;BME280;24929;51.982;4.664;2023-02-18T08:23:13;77264.22;;;-143.36;nan
39209;BME280;24929;51.982;4.664;2023-02-18T08:25:39;77270.25;;;-143.36;nan
39209;BME280;24929;51.982;4.664;2023-02-18T08:28:05;77234.13;;;-143.36;nan
39209;BME280;24929;51.982;4.664;2023-02-18T08:30:30;77242.16;;;-143.36;nan
39209;BME280;24929;51.982;4.664;2023-02-18T08:32:56;77266.22;;;-143.36;nan
39209;BME280;24929;51.982;4.664;2023-02-18T08:35:22;77244.16;;;-143.36;nan
39209;BME280;24929;51.982;4.664;2023-02-18T08:37:47;77258.19;;;-143.36;nan
39209;BME280;24929;51.982;4.664;2023-02-18T08:40:13;77226.09;;;-143.36;nan
39209;BME280;24929;51.982;4.664;2023-02-18T08:42:38;77252.19;;;-143.36;nan
39209;BME280;24929;51.982;4.664;2023-02-18T08:45:05;77183.94;;;-143.36;nan
39209;BME280;24929;51.982;4.664;2023-02-18T08:47:30;77208.03;;;-143.36;nan
39209;BME280;24929;51.982;4.664;2023-02-18T08:49:56;77260.22;;;-143.36;nan
39209;BME280;24929;51.982;4.664;2023-02-18T08:52:21;77240.13;;;-143.36;nan
39209;BME280;24929;51.982;4.664;2023-02-18T08:54:46;77208.03;;;-143.36;nan
39209;BME280;24929;51.982;4.664;2023-02-18T08:57:12;77244.16;;;-143.36;nan
39209;BME280;24929;51.982;4.664;2023-02-18T08:59:37;77212.03;;;-143.36;nan
39209;BME280;24929;51.982;4.664;2023-02-18T09:02:03;77230.09;;;-143.36;nan
39209;BME280;24929;51.982;4.664;2023-02-18T09:04:29;77234.13;;;-143.36;nan
39209;BME280;24929;51.982;4.664;2023-02-18T09:06:55;77252.19;;;-143.36;nan
39209;BME280;24929;51.982;4.664;2023-02-18T09:09:20;77244.16;;;-143.36;nan
39209;BME280;24929;51.982;4.664;2023-02-18T09:11:46;77236.13;;;-143.36;nan
39209;BME280;24929;51.982;4.664;2023-02-18T09:14:12;77220.06;;;-143.36;nan
39209;BME280;24929;51.982;4.664;2023-02-18T09:16:39;77232.09;;;-143.36;nan
39209;BME280;24929;51.982;4.664;2023-02-18T09:19:05;77240.13;;;-143.36;nan
39209;BME280;24929;51.982;4.664;2023-02-18T09:21:30;77234.13;;;-143.36;nan
39209;BME280;24929;51.982;4.664;2023-02-18T09:23:56;77234.13;;;-143.36;nan
39209;BME280;24929;51.982;4.664;2023-02-18T09:26:22;77262.22;;;-143.36;nan
39209;BME280;24929;51.982;4.664;2023-02-18T09:28:50;77254.19;;;-143.36;nan
39209;BME280;24929;51.982;4.664;2023-02-18T09:31:18;77181.94;;;-143.36;nan
39209;BME280;24929;51.982;4.664;2023-02-18T09:33:46;77198.00;;;-143.36;nan
39209;BME280;24929;51.982;4.664;2023-02-18T09:36:12;77210.03;;;-143.36;nan
39209;BME280;24929;51.982;4.664;2023-02-18T09:38:38;77218.06;;;-143.36;nan
39209;BME280;24929;51.982;4.664;2023-02-18T09:41:06;77181.94;;;-143.36;nan
39209;BME280;24929;51.982;4.664;2023-02-18T09:43:38;77193.97;;;-143.36;nan
39209;BME280;24929;51.982;4.664;2023-02-18T09:48:43;77212.03;;;-143.36;nan
39209;BME280;24929;51.982;4.664;2023-02-18T09:51:13;77189.97;;;-143.36;nan
39209;BME280;24929;51.982;4.664;2023-02-18T09:53:40;77254.19;;;-143.36;nan
39209;BME280;24929;51.982;4.664;2023-02-18T09:56:14;77191.97;;;-143.36;nan
39209;BME280;24929;51.982;4.664;2023-02-18T09:58:41;77189.97;;;-143.36;nan
39209;BME280;24929;51.982;4.664;2023-02-18T10:01:27;77210.03;;;-143.36;nan
39209;BME280;24929;51.982;4.664;2023-02-18T10:04:00;77169.88;;;-143.36;nan
39209;BME280;24929;51.982;4.664;2023-02-18T10:06:30;77173.91;;;-143.36;nan
39209;BME280;24929;51.982;4.664;2023-02-18T10:09:00;77183.94;;;-143.36;nan
39209;BME280;24929;51.982;4.664;2023-02-18T10:11:39;77131.75;;;-143.36;nan
39209;BME280;24929;51.982;4.664;2023-02-18T10:14:10;77133.75;;;-143.36;nan
39209;BME280;24929;51.982;4.664;2023-02-18T10:16:36;77181.94;;;-143.36;nan
39209;BME280;24929;51.982;4.664;2023-02-18T10:21:40;77193.97;;;-143.36;nan
39209;BME280;24929;51.982;4.664;2023-02-18T10:24:28;77125.72;;;-143.36;nan
39209;BME280;24929;51.982;4.664;2023-02-18T10:26:56;77165.88;;;-143.36;nan
39209;BME280;24929;51.982;4.664;2023-02-18T10:29:21;77177.91;;;-143.36;nan
39209;BME280;24929;51.982;4.664;2023-02-18T10:34:29;77159.84;;;-143.36;nan
39209;BME280;24929;51.982;4.664;2023-02-18T10:37:30;77129.75;;;-143.36;nan
39209;BME280;24929;51.982;4.664;2023-02-18T10:43:01;77115.69;;;-143.36;nan
39209;BME280;24929;51.982;4.664;2023-02-18T10:45:47;77105.66;;;-143.36;nan
39209;BME280;24929;51.982;4.664;2023-02-18T10:50:54;77147.81;;;-143.36;nan
39209;BME280;24929;51.982;4.664;2023-02-18T10:53:35;77069.53;;;-143.36;nan
39209;BME280;24929;51.982;4.664;2023-02-18T10:56:02;77141.78;;;-143.36;nan
39209;BME280;24929;51.982;4.664;2023-02-18T10:58:35;77077.56;;;-143.36;nan
39209;BME280;24929;51.982;4.664;2023-02-18T11:01:04;77099.66;;;-143.36;nan
39209;BME280;24929;51.982;4.664;2023-02-18T11:03:41;77077.56;;;-143.36;nan
39209;BME280;24929;51.982;4.664;2023-02-18T11:06:37;77097.63;;;-143.36;nan
39209;BME280;24929;51.982;4.664;2023-02-18T11:09:00;77091.63;;;-143.36;nan
39209;BME280;24929;51.982;4.664;2023-02-18T11:11:31;77093.63;;;-143.36;nan
39209;BME280;24929;51.982;4.664;2023-02-18T11:14:00;77067.53;;;-143.36;nan
39209;BME280;24929;51.982;4.664;2023-02-18T11:16:44;77043.44;;;-143.36;nan
39209;BME280;24929;51.982;4.664;2023-02-18T11:19:35;77053.47;;;-143.36;nan
39209;BME280;24929;51.982;4.664;2023-02-18T11:22:22;77023.38;;;-143.36;nan
39209;BME280;24929;51.982;4.664;2023-02-18T11:24:54;77085.59;;;-143.36;nan
39209;BME280;24929;51.982;4.664;2023-02-18T11:27:23;77061.50;;;-143.36;nan
39209;BME280;24929;51.982;4.664;2023-02-18T11:30:20;77019.38;;;-143.36;nan
39209;BME280;24929;51.982;4.664;2023-02-18T11:32:49;77061.50;;;-143.36;nan
39209;BME280;24929;51.982;4.664;2023-02-18T11:35:27;77037.44;;;-143.36;nan
39209;BME280;24929;51.982;4.664;2023-02-18T11:37:56;77053.47;;;-143.36;nan
39209;BME280;24929;51.982;4.664;2023-02-18T11:40:34;77065.53;;;-143.36;nan
39209;BME280;24929;51.982;4.664;2023-02-18T11:43:14;77049.47;;;-143.36;nan
39209;BME280;24929;51.982;4.664;2023-02-18T11:45:40;77089.59;;;-143.36;nan
39209;BME280;24929;51.982;4.664;2023-02-18T11:48:26;77005.31;;;-143.36;nan
39209;BME280;24929;51.982;4.664;2023-02-18T11:50:52;77047.47;;;-143.36;nan
39209;BME280;24929;51.982;4.664;2023-02-18T11:53:32;77021.38;;;-143.36;nan
39209;BME280;24929;51.982;4.664;2023-02-18T11:56:04;77047.47;;;-143.36;nan
39209;BME280;24929;51.982;4.664;2023-02-18T11:58:44;77037.44;;;-143.36;nan
39209;BME280;24929;51.982;4.664;2023-02-18T12:01:17;77015.34;;;-143.36;nan
39209;BME280;24929;51.982;4.664;2023-02-18T12:03:55;77015.34;;;-143.36;nan
39209;BME280;24929;51.982;4.664;2023-02-18T12:06:27;77029.41;;;-143.36;nan
39209;BME280;24929;51.982;4.664;2023-02-18T12:09:02;77007.31;;;-143.36;nan
39209;BME280;24929;51.982;4.664;2023-02-18T12:11:41;76971.19;;;-143.36;nan
39209;BME280;24929;51.982;4.664;2023-02-18T12:14:17;76931.06;;;-143.36;nan
39209;BME280;24929;51.982;4.664;2023-02-18T12:32:47;76900.97;;;-143.36;nan
39209;BME280;24929;51.982;4.664;2023-02-18T12:43:55;76886.91;;;-143.36;nan
39209;BME280;24929;51.982;4.664;2023-02-18T12:49:43;76908.97;;;-143.36;nan
39209;BME280;24929;51.982;4.664;2023-02-18T12:55:18;76840.75;;;-143.36;nan
39209;BME280;24929;51.982;4.664;2023-02-18T12:58:09;76866.84;;;-143.36;nan
39209;BME280;24929;51.982;4.664;2023-02-18T13:06:06;76979.22;;;-143.36;nan
39209;BME280;24929;51.982;4.664;2023-02-18T13:08:52;76973.19;;;-143.36;nan
39209;BME280;24929;51.982;4.664;2023-02-18T13:14:27;76953.13;;;-143.36;nan
39209;BME280;24929;51.982;4.664;2023-02-18T13:16:55;76959.16;;;-143.36;nan
39209;BME280;24929;51.982;4.664;2023-02-18T13:19:35;76915.00;;;-143.36;nan
39209;BME280;24929;51.982;4.664;2023-02-18T13:22:05;76959.16;;;-143.36;nan
39209;BME280;24929;51.982;4.664;2023-02-18T13:24:36;76945.09;;;-143.36;nan
39209;BME280;24929;51.982;4.664;2023-02-18T13:32:38;76931.06;;;-143.36;nan
39209;BME280;24929;51.982;4.664;2023-02-18T13:40:26;76915.00;;;-143.36;nan
39209;BME280;24929;51.982;4.664;2023-02-18T13:46:12;76868.84;;;-143.36;nan
39209;BME280;24929;51.982;4.664;2023-02-18T13:51:11;76882.88;;;-143.36;nan
39209;BME280;24929;51.982;4.664;2023-02-18T13:53:39;76890.91;;;-143.36;nan
39209;BME280;24929;51.982;4.664;2023-02-18T13:56:26;76830.72;;;-143.36;nan
39209;BME280;24929;51.982;4.664;2023-02-18T13:59:06;76830.72;;;-143.36;nan
39209;BME280;24929;51.982;4.664;2023-02-18T14:01:40;76802.63;;;-143.36;nan
39209;BME280;24929;51.982;4.664;2023-02-18T14:09:43;76836.72;;;-143.36;nan
39209;BME280;24929;51.982;4.664;2023-02-18T14:15:00;76925.03;;;-143.36;nan
39209;BME280;24929;51.982;4.664;2023-02-18T14:17:30;76844.75;;;-143.36;nan
39209;BME280;24929;51.982;4.664;2023-02-18T14:22:32;76898.94;;;-143.36;nan
39209;BME280;24929;51.982;4.664;2023-02-18T14:27:34;76923.03;;;-143.36;nan
39209;BME280;24929;51.982;4.664;2023-02-18T14:30:17;76882.88;;;-143.36;nan
39209;BME280;24929;51.982;4.664;2023-02-18T14:32:43;76933.06;;;-143.36;nan
39209;BME280;24929;51.982;4.664;2023-02-18T14:37:56;76915.00;;;-143.36;nan
39209;BME280;24929;51.982;4.664;2023-02-18T14:40:48;76856.81;;;-143.36;nan
39209;BME280;24929;51.982;4.664;2023-02-18T14:51:45;76894.94;;;-143.36;nan
39209;BME280;24929;51.982;4.664;2023-02-18T14:54:15;76919.00;;;-143.36;nan
39209;BME280;24929;51.982;4.664;2023-02-18T14:56:54;76917.00;;;-143.36;nan
39209;BME280;24929;51.982;4.664;2023-02-18T14:59:21;76937.06;;;-143.36;nan
39209;BME280;24929;51.982;4.664;2023-02-18T15:01:48;76969.19;;;-143.36;nan
39209;BME280;24929;51.982;4.664;2023-02-18T15:04:14;76943.09;;;-143.36;nan
39209;BME280;24929;51.982;4.664;2023-02-18T15:06:40;76955.13;;;-143.36;nan
39209;BME280;24929;51.982;4.664;2023-02-18T15:09:18;76933.06;;;-143.36;nan
39209;BME280;24929;51.982;4.664;2023-02-18T15:11:47;76931.06;;;-143.36;nan
39209;BME280;24929;51.982;4.664;2023-02-18T15:14:23;76890.91;;;-143.36;nan
39209;BME280;24929;51.982;4.664;2023-02-18T15:16:49;76947.13;;;-143.36;nan
39209;BME280;24929;51.982;4.664;2023-02-18T15:19:18;76923.03;;;-143.36;nan
39209;BME280;24929;51.982;4.664;2023-02-18T15:21:50;76886.91;;;-143.36;nan
39209;BME280;24929;51.982;4.664;2023-02-18T15:24:35;76904.97;;;-143.36;nan
39209;BME280;24929;51.982;4.664;2023-02-18T15:27:27;76898.94;;;-143.36;nan
39209;BME280;24929;51.982;4.664;2023-02-18T15:30:16;76921.03;;;-143.36;nan
39209;BME280;24929;51.982;4.664;2023-02-18T15:32:53;76927.03;;;-143.36;nan
39209;BME280;24929;51.982;4.664;2023-02-18T15:35:21;76979.22;;;-143.36;nan
39209;BME280;24929;51.982;4.664;2023-02-18T15:37:51;76943.09;;;-143.36;nan